sensor_id;sensor_type;location;lat;lon;timestamp;P1;durP1;ratioP1;P2;durP2;ratioP2
74064;SDS011;62421;51.412;5.432;2023-05-21T00:00:04;8.65;;;4.85;;
74064;SDS011;62421;51.412;5.432;2023-05-21T00:02:34;7.97;;;3.95;;
74064;SDS011;62421;51.412;5.432;2023-05-21T00:05:00;8.80;;;5.30;;
74064;SDS011;62421;51.412;5.432;2023-05-21T00:07:25;10.03;;;4.97;;
74064;SDS011;62421;51.412;5.432;2023-05-21T00:09:51;9.80;;;5.20;;
74064;SDS011;62421;51.412;5.432;2023-05-21T00:12:17;9.20;;;4.88;;
74064;SDS011;62421;51.412;5.432;2023-05-21T00:14:42;9.10;;;5.13;;
74064;SDS011;62421;51.412;5.432;2023-05-21T00:17:07;11.40;;;5.30;;
74064;SDS011;62421;51.412;5.432;2023-05-21T00:19:33;7.73;;;4.77;;
74064;SDS011;62421;51.412;5.432;2023-05-21T00:21:58;10.43;;;4.70;;
74064;SDS011;62421;51.412;5.432;2023-05-21T00:24:26;12.40;;;5.70;;
74064;SDS011;62421;51.412;5.432;2023-05-21T00:26:52;11.27;;;5.28;;
74064;SDS011;62421;51.412;5.432;2023-05-21T00:29:18;8.27;;;4.97;;
74064;SDS011;62421;51.412;5.432;2023-05-21T00:31:43;8.83;;;5.07;;
74064;SDS011;62421;51.412;5.432;2023-05-21T00:34:08;10.33;;;4.93;;
74064;SDS011;62421;51.412;5.432;2023-05-21T00:36:34;11.97;;;5.23;;
74064;SDS011;62421;51.412;5.432;2023-05-21T00:38:59;8.82;;;4.85;;
74064;SDS011;62421;51.412;5.432;2023-05-21T00:41:26;10.00;;;5.03;;
74064;SDS011;62421;51.412;5.432;2023-05-21T00:43:54;9.75;;;5.20;;
74064;SDS011;62421;51.412;5.432;2023-05-21T00:46:20;8.57;;;5.00;;
74064;SDS011;62421;51.412;5.432;2023-05-21T00:48:45;13.63;;;5.13;;
74064;SDS011;62421;51.412;5.432;2023-05-21T00:51:14;11.18;;;5.38;;
74064;SDS011;62421;51.412;5.432;2023-05-21T00:53:42;10.93;;;5.13;;
74064;SDS011;62421;51.412;5.432;2023-05-21T00:56:08;9.33;;;4.40;;
74064;SDS011;62421;51.412;5.432;2023-05-21T00:58:34;10.95;;;4.20;;
74064;SDS011;62421;51.412;5.432;2023-05-21T01:01:00;7.07;;;4.30;;
74064;SDS011;62421;51.412;5.432;2023-05-21T01:03:30;8.13;;;4.65;;
74064;SDS011;62421;51.412;5.432;2023-05-21T01:06:02;9.07;;;4.47;;
74064;SDS011;62421;51.412;5.432;2023-05-21T01:08:31;8.80;;;4.22;;
74064;SDS011;62421;51.412;5.432;2023-05-21T01:10:58;9.15;;;4.82;;
74064;SDS011;62421;51.412;5.432;2023-05-21T01:13:25;11.53;;;5.13;;
74064;SDS011;62421;51.412;5.432;2023-05-21T01:15:51;9.35;;;4.25;;
74064;SDS011;62421;51.412;5.432;2023-05-21T01:18:17;9.70;;;5.22;;
74064;SDS011;62421;51.412;5.432;2023-05-21T01:20:44;7.28;;;4.38;;
74064;SDS011;62421;51.412;5.432;2023-05-21T01:23:11;7.00;;;4.05;;
74064;SDS011;62421;51.412;5.432;2023-05-21T01:25:43;7.93;;;4.73;;
74064;SDS011;62421;51.412;5.432;2023-05-21T01:28:09;10.60;;;4.45;;
74064;SDS011;62421;51.412;5.432;2023-05-21T01:30:35;9.70;;;4.53;;
74064;SDS011;62421;51.412;5.432;2023-05-21T01:33:06;10.45;;;5.72;;
74064;SDS011;62421;51.412;5.432;2023-05-21T01:35:41;13.68;;;5.22;;
74064;SDS011;62421;51.412;5.432;2023-05-21T01:40:39;10.15;;;4.90;;
74064;SDS011;62421;51.412;5.432;2023-05-21T01:43:17;10.23;;;5.13;;
74064;SDS011;62421;51.412;5.432;2023-05-21T01:45:43;8.40;;;5.50;;
74064;SDS011;62421;51.412;5.432;2023-05-21T01:48:10;8.55;;;5.25;;
74064;SDS011;62421;51.412;5.432;2023-05-21T01:50:37;11.90;;;5.80;;
74064;SDS011;62421;51.412;5.432;2023-05-21T01:53:04;12.95;;;6.50;;
74064;SDS011;62421;51.412;5.432;2023-05-21T01:55:30;11.93;;;6.80;;
74064;SDS011;62421;51.412;5.432;2023-05-21T01:57:56;12.27;;;6.60;;
74064;SDS011;62421;51.412;5.432;2023-05-21T02:00:24;13.48;;;7.38;;
74064;SDS011;62421;51.412;5.432;2023-05-21T02:02:52;14.13;;;7.20;;
74064;SDS011;62421;51.412;5.432;2023-05-21T02:05:17;11.13;;;6.90;;
74064;SDS011;62421;51.412;5.432;2023-05-21T02:07:43;12.35;;;7.45;;
74064;SDS011;62421;51.412;5.432;2023-05-21T02:10:10;12.23;;;7.00;;
74064;SDS011;62421;51.412;5.432;2023-05-21T02:12:36;13.23;;;7.03;;
74064;SDS011;62421;51.412;5.432;2023-05-21T02:15:01;13.40;;;6.72;;
74064;SDS011;62421;51.412;5.432;2023-05-21T02:17:27;12.10;;;6.40;;
74064;SDS011;62421;51.412;5.432;2023-05-21T02:19:57;12.48;;;6.40;;
74064;SDS011;62421;51.412;5.432;2023-05-21T02:22:31;11.93;;;7.50;;
74064;SDS011;62421;51.412;5.432;2023-05-21T02:24:56;12.30;;;6.20;;
74064;SDS011;62421;51.412;5.432;2023-05-21T02:27:21;13.13;;;6.57;;
74064;SDS011;62421;51.412;5.432;2023-05-21T02:29:47;10.48;;;6.18;;
74064;SDS011;62421;51.412;5.432;2023-05-21T02:32:12;10.50;;;6.70;;
74064;SDS011;62421;51.412;5.432;2023-05-21T02:34:38;12.03;;;6.70;;
74064;SDS011;62421;51.412;5.432;2023-05-21T02:37:06;9.57;;;6.43;;
74064;SDS011;62421;51.412;5.432;2023-05-21T02:39:33;10.33;;;6.13;;
74064;SDS011;62421;51.412;5.432;2023-05-21T02:41:58;8.63;;;5.35;;
74064;SDS011;62421;51.412;5.432;2023-05-21T02:44:24;10.10;;;5.67;;
74064;SDS011;62421;51.412;5.432;2023-05-21T02:46:49;9.33;;;5.87;;
74064;SDS011;62421;51.412;5.432;2023-05-21T02:49:15;10.37;;;5.20;;
74064;SDS011;62421;51.412;5.432;2023-05-21T02:51:40;11.23;;;5.30;;
74064;SDS011;62421;51.412;5.432;2023-05-21T02:54:05;9.80;;;5.67;;
74064;SDS011;62421;51.412;5.432;2023-05-21T02:56:31;11.00;;;6.70;;
74064;SDS011;62421;51.412;5.432;2023-05-21T02:58:56;9.70;;;4.90;;
74064;SDS011;62421;51.412;5.432;2023-05-21T03:01:21;8.52;;;4.95;;
74064;SDS011;62421;51.412;5.432;2023-05-21T03:03:47;8.67;;;4.93;;
74064;SDS011;62421;51.412;5.432;2023-05-21T03:06:12;10.63;;;6.23;;
74064;SDS011;62421;51.412;5.432;2023-05-21T03:08:38;11.80;;;5.33;;
74064;SDS011;62421;51.412;5.432;2023-05-21T03:11:03;12.02;;;5.97;;
74064;SDS011;62421;51.412;5.432;2023-05-21T03:13:28;10.95;;;5.45;;
74064;SDS011;62421;51.412;5.432;2023-05-21T03:15:54;9.30;;;5.13;;
74064;SDS011;62421;51.412;5.432;2023-05-21T03:18:20;8.97;;;4.43;;
74064;SDS011;62421;51.412;5.432;2023-05-21T03:20:46;8.38;;;4.93;;
74064;SDS011;62421;51.412;5.432;2023-05-21T03:23:11;10.03;;;5.63;;
74064;SDS011;62421;51.412;5.432;2023-05-21T03:25:38;9.63;;;4.82;;
74064;SDS011;62421;51.412;5.432;2023-05-21T03:28:03;9.05;;;4.97;;
74064;SDS011;62421;51.412;5.432;2023-05-21T03:30:29;8.53;;;5.33;;
74064;SDS011;62421;51.412;5.432;2023-05-21T03:32:54;8.67;;;5.47;;
74064;SDS011;62421;51.412;5.432;2023-05-21T03:35:20;13.50;;;5.88;;
74064;SDS011;62421;51.412;5.432;2023-05-21T03:37:45;9.47;;;6.13;;
74064;SDS011;62421;51.412;5.432;2023-05-21T03:40:11;9.80;;;5.57;;
74064;SDS011;62421;51.412;5.432;2023-05-21T03:42:37;12.02;;;5.90;;
74064;SDS011;62421;51.412;5.432;2023-05-21T03:45:02;9.37;;;5.93;;
74064;SDS011;62421;51.412;5.432;2023-05-21T03:47:28;10.90;;;6.30;;
74064;SDS011;62421;51.412;5.432;2023-05-21T03:49:53;9.70;;;5.37;;
74064;SDS011;62421;51.412;5.432;2023-05-21T03:52:18;11.85;;;5.90;;
74064;SDS011;62421;51.412;5.432;2023-05-21T03:54:44;9.07;;;5.67;;
74064;SDS011;62421;51.412;5.432;2023-05-21T03:57:09;10.37;;;5.97;;
74064;SDS011;62421;51.412;5.432;2023-05-21T03:59:35;9.50;;;5.93;;
74064;SDS011;62421;51.412;5.432;2023-05-21T04:02:00;10.77;;;5.57;;
74064;SDS011;62421;51.412;5.432;2023-05-21T04:04:26;19.75;;;6.00;;
74064;SDS011;62421;51.412;5.432;2023-05-21T04:06:53;11.77;;;5.83;;
74064;SDS011;62421;51.412;5.432;2023-05-21T04:09:19;9.55;;;5.60;;
74064;SDS011;62421;51.412;5.432;2023-05-21T04:11:44;9.50;;;5.77;;
74064;SDS011;62421;51.412;5.432;2023-05-21T04:14:10;9.52;;;5.22;;
74064;SDS011;62421;51.412;5.432;2023-05-21T04:16:36;11.07;;;4.85;;
74064;SDS011;62421;51.412;5.432;2023-05-21T04:19:02;9.20;;;5.00;;
74064;SDS011;62421;51.412;5.432;2023-05-21T04:21:28;8.25;;;5.22;;
74064;SDS011;62421;51.412;5.432;2023-05-21T04:23:53;10.17;;;5.60;;
74064;SDS011;62421;51.412;5.432;2023-05-21T04:26:21;12.02;;;5.57;;
74064;SDS011;62421;51.412;5.432;2023-05-21T04:28:47;10.00;;;5.50;;
74064;SDS011;62421;51.412;5.432;2023-05-21T04:31:13;8.98;;;5.43;;
74064;SDS011;62421;51.412;5.432;2023-05-21T04:33:39;11.73;;;5.47;;
74064;SDS011;62421;51.412;5.432;2023-05-21T04:36:06;8.13;;;4.70;;
74064;SDS011;62421;51.412;5.432;2023-05-21T04:38:33;10.07;;;6.18;;
74064;SDS011;62421;51.412;5.432;2023-05-21T04:41:01;12.15;;;6.25;;
74064;SDS011;62421;51.412;5.432;2023-05-21T04:43:28;10.68;;;5.50;;
74064;SDS011;62421;51.412;5.432;2023-05-21T04:45:53;11.83;;;5.73;;
74064;SDS011;62421;51.412;5.432;2023-05-21T04:48:22;10.10;;;6.10;;
74064;SDS011;62421;51.412;5.432;2023-05-21T04:50:48;10.68;;;5.90;;
74064;SDS011;62421;51.412;5.432;2023-05-21T04:53:14;11.90;;;6.05;;
74064;SDS011;62421;51.412;5.432;2023-05-21T04:55:40;10.47;;;5.47;;
74064;SDS011;62421;51.412;5.432;2023-05-21T04:58:06;12.80;;;5.63;;
74064;SDS011;62421;51.412;5.432;2023-05-21T05:00:32;7.85;;;5.20;;
74064;SDS011;62421;51.412;5.432;2023-05-21T05:02:57;8.97;;;5.63;;
74064;SDS011;62421;51.412;5.432;2023-05-21T05:05:23;8.57;;;5.15;;
74064;SDS011;62421;51.412;5.432;2023-05-21T05:07:48;10.18;;;6.05;;
74064;SDS011;62421;51.412;5.432;2023-05-21T05:10:13;10.03;;;5.67;;
74064;SDS011;62421;51.412;5.432;2023-05-21T05:12:39;10.53;;;6.17;;
74064;SDS011;62421;51.412;5.432;2023-05-21T05:15:04;10.00;;;5.47;;
74064;SDS011;62421;51.412;5.432;2023-05-21T05:17:30;9.75;;;6.00;;
74064;SDS011;62421;51.412;5.432;2023-05-21T05:19:55;9.80;;;5.70;;
74064;SDS011;62421;51.412;5.432;2023-05-21T05:22:21;10.13;;;4.83;;
74064;SDS011;62421;51.412;5.432;2023-05-21T05:24:46;8.37;;;5.43;;
74064;SDS011;62421;51.412;5.432;2023-05-21T05:27:11;11.57;;;5.90;;
74064;SDS011;62421;51.412;5.432;2023-05-21T05:29:37;9.80;;;5.83;;
74064;SDS011;62421;51.412;5.432;2023-05-21T05:32:02;12.57;;;5.87;;
74064;SDS011;62421;51.412;5.432;2023-05-21T05:34:28;10.68;;;6.07;;
74064;SDS011;62421;51.412;5.432;2023-05-21T05:36:53;9.00;;;6.00;;
74064;SDS011;62421;51.412;5.432;2023-05-21T05:39:18;9.60;;;5.80;;
74064;SDS011;62421;51.412;5.432;2023-05-21T05:41:44;12.67;;;7.03;;
74064;SDS011;62421;51.412;5.432;2023-05-21T05:44:09;14.30;;;6.20;;
74064;SDS011;62421;51.412;5.432;2023-05-21T05:46:35;9.27;;;6.07;;
74064;SDS011;62421;51.412;5.432;2023-05-21T05:49:00;11.87;;;6.63;;
74064;SDS011;62421;51.412;5.432;2023-05-21T05:51:25;12.13;;;6.67;;
74064;SDS011;62421;51.412;5.432;2023-05-21T05:53:51;12.20;;;6.22;;
74064;SDS011;62421;51.412;5.432;2023-05-21T05:56:16;10.98;;;6.57;;
74064;SDS011;62421;51.412;5.432;2023-05-21T05:58:41;9.73;;;6.10;;
74064;SDS011;62421;51.412;5.432;2023-05-21T06:01:07;9.30;;;6.13;;
74064;SDS011;62421;51.412;5.432;2023-05-21T06:03:32;10.37;;;6.10;;
74064;SDS011;62421;51.412;5.432;2023-05-21T06:05:57;10.27;;;6.77;;
74064;SDS011;62421;51.412;5.432;2023-05-21T06:08:23;11.63;;;6.47;;
74064;SDS011;62421;51.412;5.432;2023-05-21T06:10:48;11.57;;;6.05;;
74064;SDS011;62421;51.412;5.432;2023-05-21T06:13:14;10.93;;;6.93;;
74064;SDS011;62421;51.412;5.432;2023-05-21T06:15:39;10.20;;;6.23;;
74064;SDS011;62421;51.412;5.432;2023-05-21T06:18:07;11.02;;;6.40;;
74064;SDS011;62421;51.412;5.432;2023-05-21T06:20:32;10.50;;;6.27;;
74064;SDS011;62421;51.412;5.432;2023-05-21T06:22:58;12.23;;;6.03;;
74064;SDS011;62421;51.412;5.432;2023-05-21T06:25:23;10.27;;;6.47;;
74064;SDS011;62421;51.412;5.432;2023-05-21T06:27:49;15.03;;;5.90;;
74064;SDS011;62421;51.412;5.432;2023-05-21T06:30:15;9.52;;;5.72;;
74064;SDS011;62421;51.412;5.432;2023-05-21T06:32:41;11.48;;;6.38;;
74064;SDS011;62421;51.412;5.432;2023-05-21T06:35:07;11.27;;;6.00;;
74064;SDS011;62421;51.412;5.432;2023-05-21T06:37:33;10.43;;;5.65;;
74064;SDS011;62421;51.412;5.432;2023-05-21T06:39:58;13.00;;;7.20;;
74064;SDS011;62421;51.412;5.432;2023-05-21T06:42:23;10.80;;;5.20;;
74064;SDS011;62421;51.412;5.432;2023-05-21T06:44:49;12.23;;;6.83;;
74064;SDS011;62421;51.412;5.432;2023-05-21T06:47:14;10.53;;;6.80;;
74064;SDS011;62421;51.412;5.432;2023-05-21T06:49:40;17.50;;;6.63;;
74064;SDS011;62421;51.412;5.432;2023-05-21T06:52:05;9.97;;;6.30;;
74064;SDS011;62421;51.412;5.432;2023-05-21T06:54:31;15.07;;;7.10;;
74064;SDS011;62421;51.412;5.432;2023-05-21T06:56:57;9.53;;;5.53;;
74064;SDS011;62421;51.412;5.432;2023-05-21T06:59:22;10.27;;;6.70;;
74064;SDS011;62421;51.412;5.432;2023-05-21T07:01:47;12.57;;;7.57;;
74064;SDS011;62421;51.412;5.432;2023-05-21T07:04:13;12.87;;;8.10;;
74064;SDS011;62421;51.412;5.432;2023-05-21T07:06:38;12.97;;;8.40;;
74064;SDS011;62421;51.412;5.432;2023-05-21T07:09:04;14.00;;;7.80;;
74064;SDS011;62421;51.412;5.432;2023-05-21T07:11:30;14.40;;;7.40;;
74064;SDS011;62421;51.412;5.432;2023-05-21T07:13:57;11.68;;;7.35;;
74064;SDS011;62421;51.412;5.432;2023-05-21T07:16:27;10.98;;;6.90;;
74064;SDS011;62421;51.412;5.432;2023-05-21T07:18:53;14.00;;;7.10;;
74064;SDS011;62421;51.412;5.432;2023-05-21T07:21:18;13.50;;;6.87;;
74064;SDS011;62421;51.412;5.432;2023-05-21T07:23:43;11.73;;;7.60;;
74064;SDS011;62421;51.412;5.432;2023-05-21T07:26:09;16.03;;;7.63;;
74064;SDS011;62421;51.412;5.432;2023-05-21T07:28:35;12.45;;;7.50;;
74064;SDS011;62421;51.412;5.432;2023-05-21T07:31:00;11.67;;;7.13;;
74064;SDS011;62421;51.412;5.432;2023-05-21T07:33:26;13.00;;;7.65;;
74064;SDS011;62421;51.412;5.432;2023-05-21T07:35:52;12.63;;;8.37;;
74064;SDS011;62421;51.412;5.432;2023-05-21T07:38:17;11.50;;;7.87;;
74064;SDS011;62421;51.412;5.432;2023-05-21T07:40:43;14.32;;;8.52;;
74064;SDS011;62421;51.412;5.432;2023-05-21T07:43:08;13.70;;;7.60;;
74064;SDS011;62421;51.412;5.432;2023-05-21T07:45:33;13.17;;;6.90;;
74064;SDS011;62421;51.412;5.432;2023-05-21T07:47:59;12.43;;;7.87;;
74064;SDS011;62421;51.412;5.432;2023-05-21T07:50:24;16.53;;;7.97;;
74064;SDS011;62421;51.412;5.432;2023-05-21T07:52:50;17.70;;;8.57;;
74064;SDS011;62421;51.412;5.432;2023-05-21T07:55:15;12.43;;;8.30;;
74064;SDS011;62421;51.412;5.432;2023-05-21T07:57:41;18.03;;;8.23;;
74064;SDS011;62421;51.412;5.432;2023-05-21T08:00:06;13.43;;;8.10;;
74064;SDS011;62421;51.412;5.432;2023-05-21T08:02:38;15.13;;;8.90;;
74064;SDS011;62421;51.412;5.432;2023-05-21T08:05:03;12.73;;;8.38;;
74064;SDS011;62421;51.412;5.432;2023-05-21T08:07:29;14.27;;;9.07;;
74064;SDS011;62421;51.412;5.432;2023-05-21T08:09:56;14.50;;;8.18;;
74064;SDS011;62421;51.412;5.432;2023-05-21T08:12:22;14.70;;;9.23;;
74064;SDS011;62421;51.412;5.432;2023-05-21T08:14:48;14.67;;;8.60;;
74064;SDS011;62421;51.412;5.432;2023-05-21T08:17:14;14.68;;;8.15;;
74064;SDS011;62421;51.412;5.432;2023-05-21T08:19:40;15.20;;;9.02;;
74064;SDS011;62421;51.412;5.432;2023-05-21T08:22:06;15.23;;;9.23;;
74064;SDS011;62421;51.412;5.432;2023-05-21T08:24:31;15.83;;;8.33;;
74064;SDS011;62421;51.412;5.432;2023-05-21T08:26:57;14.63;;;8.40;;
74064;SDS011;62421;51.412;5.432;2023-05-21T08:29:22;17.85;;;8.57;;
74064;SDS011;62421;51.412;5.432;2023-05-21T08:31:47;14.03;;;8.40;;
74064;SDS011;62421;51.412;5.432;2023-05-21T08:34:13;15.23;;;9.53;;
74064;SDS011;62421;51.412;5.432;2023-05-21T08:36:38;16.93;;;9.47;;
74064;SDS011;62421;51.412;5.432;2023-05-21T08:39:07;17.20;;;8.77;;
74064;SDS011;62421;51.412;5.432;2023-05-21T08:41:32;16.70;;;9.83;;
74064;SDS011;62421;51.412;5.432;2023-05-21T08:44:00;14.82;;;8.95;;
74064;SDS011;62421;51.412;5.432;2023-05-21T08:46:27;15.10;;;8.55;;
74064;SDS011;62421;51.412;5.432;2023-05-21T08:48:56;12.90;;;8.23;;
74064;SDS011;62421;51.412;5.432;2023-05-21T08:51:23;15.00;;;9.95;;
74064;SDS011;62421;51.412;5.432;2023-05-21T08:53:48;16.30;;;9.27;;
74064;SDS011;62421;51.412;5.432;2023-05-21T08:56:17;15.65;;;8.73;;
74064;SDS011;62421;51.412;5.432;2023-05-21T08:58:45;16.95;;;9.80;;
74064;SDS011;62421;51.412;5.432;2023-05-21T09:01:10;18.38;;;10.00;;
74064;SDS011;62421;51.412;5.432;2023-05-21T09:03:37;14.85;;;9.55;;
74064;SDS011;62421;51.412;5.432;2023-05-21T09:06:04;17.17;;;9.10;;
74064;SDS011;62421;51.412;5.432;2023-05-21T09:08:34;15.50;;;9.45;;
74064;SDS011;62421;51.412;5.432;2023-05-21T09:11:00;15.73;;;10.23;;
74064;SDS011;62421;51.412;5.432;2023-05-21T09:13:26;14.90;;;9.52;;
74064;SDS011;62421;51.412;5.432;2023-05-21T09:15:55;17.23;;;9.85;;
74064;SDS011;62421;51.412;5.432;2023-05-21T09:18:21;15.33;;;10.43;;
74064;SDS011;62421;51.412;5.432;2023-05-21T09:20:46;18.50;;;10.25;;
74064;SDS011;62421;51.412;5.432;2023-05-21T09:23:11;17.33;;;9.40;;
74064;SDS011;62421;51.412;5.432;2023-05-21T09:25:44;18.60;;;9.53;;
74064;SDS011;62421;51.412;5.432;2023-05-21T09:28:14;16.45;;;11.35;;
74064;SDS011;62421;51.412;5.432;2023-05-21T09:30:47;13.25;;;8.82;;
74064;SDS011;62421;51.412;5.432;2023-05-21T09:33:27;14.63;;;10.00;;
74064;SDS011;62421;51.412;5.432;2023-05-21T09:35:55;20.00;;;10.00;;
74064;SDS011;62421;51.412;5.432;2023-05-21T09:38:21;15.90;;;9.20;;
74064;SDS011;62421;51.412;5.432;2023-05-21T09:40:52;17.75;;;10.63;;
74064;SDS011;62421;51.412;5.432;2023-05-21T09:43:20;15.47;;;9.17;;
74064;SDS011;62421;51.412;5.432;2023-05-21T09:45:52;15.77;;;9.13;;
74064;SDS011;62421;51.412;5.432;2023-05-21T09:48:37;17.60;;;11.20;;
74064;SDS011;62421;51.412;5.432;2023-05-21T09:51:17;18.52;;;11.25;;
74064;SDS011;62421;51.412;5.432;2023-05-21T09:56:25;17.70;;;11.07;;
74064;SDS011;62421;51.412;5.432;2023-05-21T09:58:53;17.65;;;9.80;;
74064;SDS011;62421;51.412;5.432;2023-05-21T10:01:20;14.33;;;10.53;;
74064;SDS011;62421;51.412;5.432;2023-05-21T10:03:52;16.25;;;9.75;;
74064;SDS011;62421;51.412;5.432;2023-05-21T10:06:20;15.95;;;9.82;;
74064;SDS011;62421;51.412;5.432;2023-05-21T10:08:48;16.60;;;10.18;;
74064;SDS011;62421;51.412;5.432;2023-05-21T10:11:17;18.55;;;11.00;;
74064;SDS011;62421;51.412;5.432;2023-05-21T10:13:44;18.50;;;10.60;;
74064;SDS011;62421;51.412;5.432;2023-05-21T10:16:12;19.23;;;12.30;;
74064;SDS011;62421;51.412;5.432;2023-05-21T10:18:39;17.73;;;11.30;;
74064;SDS011;62421;51.412;5.432;2023-05-21T10:21:06;18.48;;;10.27;;
74064;SDS011;62421;51.412;5.432;2023-05-21T10:23:33;17.25;;;10.73;;
74064;SDS011;62421;51.412;5.432;2023-05-21T10:26:01;19.10;;;11.90;;
74064;SDS011;62421;51.412;5.432;2023-05-21T10:28:28;17.77;;;10.32;;
74064;SDS011;62421;51.412;5.432;2023-05-21T10:30:55;19.50;;;11.68;;
74064;SDS011;62421;51.412;5.432;2023-05-21T10:33:21;17.40;;;9.40;;
74064;SDS011;62421;51.412;5.432;2023-05-21T10:35:48;17.27;;;9.93;;
74064;SDS011;62421;51.412;5.432;2023-05-21T10:38:15;15.85;;;10.43;;
74064;SDS011;62421;51.412;5.432;2023-05-21T10:40:43;21.23;;;11.60;;
74064;SDS011;62421;51.412;5.432;2023-05-21T10:48:15;19.45;;;11.32;;
74064;SDS011;62421;51.412;5.432;2023-05-21T10:50:45;17.35;;;11.35;;
74064;SDS011;62421;51.412;5.432;2023-05-21T10:56:03;19.80;;;10.88;;
74064;SDS011;62421;51.412;5.432;2023-05-21T11:01:36;16.27;;;11.38;;
74064;SDS011;62421;51.412;5.432;2023-05-21T11:04:03;14.93;;;10.60;;
74064;SDS011;62421;51.412;5.432;2023-05-21T11:06:32;19.73;;;11.70;;
74064;SDS011;62421;51.412;5.432;2023-05-21T11:09:15;17.73;;;10.95;;
74064;SDS011;62421;51.412;5.432;2023-05-21T11:17:10;23.87;;;11.67;;
74064;SDS011;62421;51.412;5.432;2023-05-21T11:19:40;20.35;;;12.27;;
74064;SDS011;62421;51.412;5.432;2023-05-21T11:22:23;17.67;;;12.75;;
74064;SDS011;62421;51.412;5.432;2023-05-21T11:24:50;21.38;;;14.15;;
74064;SDS011;62421;51.412;5.432;2023-05-21T11:27:35;18.63;;;12.65;;
74064;SDS011;62421;51.412;5.432;2023-05-21T11:30:05;17.27;;;12.27;;
74064;SDS011;62421;51.412;5.432;2023-05-21T11:32:35;19.02;;;11.98;;
74064;SDS011;62421;51.412;5.432;2023-05-21T11:35:04;22.23;;;12.07;;
74064;SDS011;62421;51.412;5.432;2023-05-21T11:37:31;24.25;;;13.18;;
74064;SDS011;62421;51.412;5.432;2023-05-21T11:40:17;27.63;;;13.40;;
74064;SDS011;62421;51.412;5.432;2023-05-21T11:42:51;19.43;;;12.67;;
74064;SDS011;62421;51.412;5.432;2023-05-21T11:45:19;23.70;;;13.75;;
74064;SDS011;62421;51.412;5.432;2023-05-21T11:47:46;22.73;;;12.38;;
74064;SDS011;62421;51.412;5.432;2023-05-21T11:50:13;19.92;;;12.68;;
74064;SDS011;62421;51.412;5.432;2023-05-21T11:52:39;22.95;;;13.07;;
74064;SDS011;62421;51.412;5.432;2023-05-21T11:55:06;19.90;;;12.97;;
74064;SDS011;62421;51.412;5.432;2023-05-21T11:57:33;19.52;;;12.30;;
74064;SDS011;62421;51.412;5.432;2023-05-21T11:59:59;22.05;;;13.32;;
74064;SDS011;62421;51.412;5.432;2023-05-21T12:02:26;22.03;;;12.33;;
74064;SDS011;62421;51.412;5.432;2023-05-21T12:04:54;27.33;;;14.18;;
74064;SDS011;62421;51.412;5.432;2023-05-21T12:07:24;21.48;;;13.30;;
74064;SDS011;62421;51.412;5.432;2023-05-21T12:09:52;19.35;;;13.27;;
74064;SDS011;62421;51.412;5.432;2023-05-21T12:12:18;25.40;;;13.27;;
74064;SDS011;62421;51.412;5.432;2023-05-21T12:14:48;23.73;;;13.15;;
74064;SDS011;62421;51.412;5.432;2023-05-21T12:17:15;20.15;;;12.68;;
74064;SDS011;62421;51.412;5.432;2023-05-21T12:19:41;21.27;;;10.67;;
74064;SDS011;62421;51.412;5.432;2023-05-21T12:22:07;22.85;;;13.75;;
74064;SDS011;62421;51.412;5.432;2023-05-21T12:24:33;24.85;;;13.40;;
74064;SDS011;62421;51.412;5.432;2023-05-21T12:27:00;22.00;;;13.07;;
74064;SDS011;62421;51.412;5.432;2023-05-21T12:29:29;25.33;;;14.10;;
74064;SDS011;62421;51.412;5.432;2023-05-21T12:31:59;22.15;;;12.10;;
74064;SDS011;62421;51.412;5.432;2023-05-21T12:37:21;21.87;;;12.17;;
74064;SDS011;62421;51.412;5.432;2023-05-21T12:39:47;23.80;;;13.77;;
74064;SDS011;62421;51.412;5.432;2023-05-21T12:42:27;21.70;;;13.50;;
74064;SDS011;62421;51.412;5.432;2023-05-21T12:44:54;22.55;;;14.20;;
74064;SDS011;62421;51.412;5.432;2023-05-21T12:47:24;20.67;;;12.70;;
74064;SDS011;62421;51.412;5.432;2023-05-21T12:49:52;23.70;;;12.13;;
74064;SDS011;62421;51.412;5.432;2023-05-21T12:52:20;24.15;;;13.80;;
74064;SDS011;62421;51.412;5.432;2023-05-21T12:54:48;20.25;;;13.80;;
74064;SDS011;62421;51.412;5.432;2023-05-21T12:57:19;20.85;;;13.82;;
74064;SDS011;62421;51.412;5.432;2023-05-21T12:59:54;21.53;;;13.27;;
74064;SDS011;62421;51.412;5.432;2023-05-21T13:02:22;24.23;;;14.23;;
74064;SDS011;62421;51.412;5.432;2023-05-21T13:04:55;19.42;;;12.45;;
74064;SDS011;62421;51.412;5.432;2023-05-21T13:07:22;21.90;;;13.18;;
74064;SDS011;62421;51.412;5.432;2023-05-21T13:09:48;19.17;;;12.13;;
74064;SDS011;62421;51.412;5.432;2023-05-21T13:12:17;21.80;;;13.53;;
74064;SDS011;62421;51.412;5.432;2023-05-21T13:14:43;19.45;;;11.77;;
74064;SDS011;62421;51.412;5.432;2023-05-21T13:17:08;23.02;;;13.27;;
74064;SDS011;62421;51.412;5.432;2023-05-21T13:19:34;25.70;;;14.00;;
74064;SDS011;62421;51.412;5.432;2023-05-21T13:22:00;17.13;;;12.20;;
74064;SDS011;62421;51.412;5.432;2023-05-21T13:24:25;17.80;;;12.05;;
74064;SDS011;62421;51.412;5.432;2023-05-21T13:26:50;18.43;;;12.23;;
74064;SDS011;62421;51.412;5.432;2023-05-21T13:29:16;20.50;;;12.57;;
74064;SDS011;62421;51.412;5.432;2023-05-21T13:31:41;21.63;;;13.50;;
74064;SDS011;62421;51.412;5.432;2023-05-21T13:34:08;22.83;;;12.60;;
74064;SDS011;62421;51.412;5.432;2023-05-21T13:36:35;22.00;;;12.40;;
74064;SDS011;62421;51.412;5.432;2023-05-21T13:39:00;20.80;;;14.33;;
74064;SDS011;62421;51.412;5.432;2023-05-21T13:41:25;20.97;;;13.20;;
74064;SDS011;62421;51.412;5.432;2023-05-21T13:43:51;20.00;;;12.23;;
74064;SDS011;62421;51.412;5.432;2023-05-21T13:46:16;21.85;;;13.25;;
74064;SDS011;62421;51.412;5.432;2023-05-21T13:48:42;22.90;;;13.23;;
74064;SDS011;62421;51.412;5.432;2023-05-21T13:51:07;21.63;;;13.30;;
74064;SDS011;62421;51.412;5.432;2023-05-21T13:53:33;21.27;;;13.23;;
74064;SDS011;62421;51.412;5.432;2023-05-21T13:55:58;24.58;;;14.95;;
74064;SDS011;62421;51.412;5.432;2023-05-21T13:58:24;21.65;;;14.05;;
74064;SDS011;62421;51.412;5.432;2023-05-21T14:00:51;24.45;;;14.93;;
74064;SDS011;62421;51.412;5.432;2023-05-21T14:03:17;19.97;;;12.93;;
74064;SDS011;62421;51.412;5.432;2023-05-21T14:05:42;20.03;;;14.77;;
74064;SDS011;62421;51.412;5.432;2023-05-21T14:08:08;23.60;;;13.70;;
74064;SDS011;62421;51.412;5.432;2023-05-21T14:10:33;22.17;;;13.67;;
74064;SDS011;62421;51.412;5.432;2023-05-21T14:12:59;25.70;;;14.53;;
74064;SDS011;62421;51.412;5.432;2023-05-21T14:15:24;19.20;;;12.27;;
74064;SDS011;62421;51.412;5.432;2023-05-21T14:17:50;18.80;;;12.27;;
74064;SDS011;62421;51.412;5.432;2023-05-21T14:20:16;19.93;;;14.03;;
74064;SDS011;62421;51.412;5.432;2023-05-21T14:22:41;23.98;;;13.68;;
74064;SDS011;62421;51.412;5.432;2023-05-21T14:25:07;22.77;;;12.70;;
74064;SDS011;62421;51.412;5.432;2023-05-21T14:27:33;26.52;;;14.32;;
74064;SDS011;62421;51.412;5.432;2023-05-21T14:29:58;19.88;;;12.73;;
74064;SDS011;62421;51.412;5.432;2023-05-21T14:32:23;18.40;;;12.37;;
74064;SDS011;62421;51.412;5.432;2023-05-21T14:34:49;24.63;;;13.07;;
74064;SDS011;62421;51.412;5.432;2023-05-21T14:37:14;23.57;;;12.93;;
74064;SDS011;62421;51.412;5.432;2023-05-21T14:39:40;16.20;;;10.90;;
74064;SDS011;62421;51.412;5.432;2023-05-21T14:42:05;21.15;;;13.07;;
74064;SDS011;62421;51.412;5.432;2023-05-21T14:44:30;18.45;;;12.93;;
74064;SDS011;62421;51.412;5.432;2023-05-21T14:46:56;19.00;;;12.00;;
74064;SDS011;62421;51.412;5.432;2023-05-21T14:49:22;20.23;;;12.52;;
74064;SDS011;62421;51.412;5.432;2023-05-21T14:51:47;16.17;;;11.43;;
74064;SDS011;62421;51.412;5.432;2023-05-21T14:54:12;19.97;;;12.07;;